Aviation Digital Data Service (ADDS)

Output produced by METARs form (0026 UTC 26 June 2019)
found at http://aviationweather.gov/metar/data/
 
KGGG 252320Z 2600/2624 17007KT P6SM BKN100 
     TEMPO 2612/2614 BKN025 
     FM261400 26008KT P6SM OVC250